Time;durP1;ratioP1;P1;durP2;ratioP2;P2;SDS_P1;SDS_P2;PMS_P1;PMS_P2;Temp;Humidity;BMP_temperature;BMP_pressure;BME280_temperature;BME280_humidity;BME280_pressure;Samples;Min_cycle;Max_cycle;Signal;HPM_P1;HPM_P2
2022/10/30 00:00:25;;;;;;;15.95;10.27;;;14.80;99.90;;;;;;5101893;28;20039;-80
2022/10/30 00:02:51;;;;;;;16.90;10.40;;;14.60;99.90;;;;;;5086098;28;20512;-81
2022/10/30 00:05:17;;;;;;;18.65;11.23;;;14.50;99.90;;;;;;5113943;28;20046;-80
2022/10/30 00:07:43;;;;;;;19.02;11.15;;;14.60;99.90;;;;;;5095849;28;20032;-80
2022/10/30 00:10:09;;;;;;;18.42;10.95;;;14.70;99.90;;;;;;5086008;28;20101;-81
2022/10/30 00:12:35;;;;;;;17.55;11.23;;;14.50;99.90;;;;;;5085403;28;20077;-80
2022/10/30 00:15:01;;;;;;;19.08;11.07;;;14.60;99.90;;;;;;5078392;28;20027;-80
2022/10/30 00:17:27;;;;;;;18.52;10.65;;;14.50;99.90;;;;;;5089510;28;20151;-81
2022/10/30 00:19:52;;;;;;;24.60;12.07;;;14.40;99.90;;;;;;5057738;28;20036;-80
2022/10/30 00:22:18;;;;;;;19.15;12.30;;;14.40;99.90;;;;;;5070052;28;20079;-79
2022/10/30 00:24:44;;;;;;;20.30;11.05;;;14.50;99.90;;;;;;5074107;28;20036;-81
2022/10/30 00:27:09;;;;;;;17.15;10.77;;;14.50;99.90;;;;;;5077637;28;20252;-80
2022/10/30 00:29:35;;;;;;;17.75;10.98;;;14.30;99.90;;;;;;5085144;28;20035;-80
2022/10/30 00:32:01;;;;;;;15.63;10.75;;;14.40;99.90;;;;;;5085264;28;20136;-80
2022/10/30 00:34:26;;;;;;;19.77;10.48;;;14.30;99.90;;;;;;5067364;28;20047;-80
2022/10/30 00:36:52;;;;;;;17.48;10.98;;;14.40;99.90;;;;;;5104539;28;20100;-80
2022/10/30 00:39:18;;;;;;;15.40;10.05;;;14.30;99.90;;;;;;5080542;28;20408;-79
2022/10/30 00:41:44;;;;;;;18.02;10.32;;;14.50;99.90;;;;;;5075695;28;20039;-81
2022/10/30 00:44:44;;;;;;;20.73;11.13;;;14.50;99.90;;;;;;5083523;28;20318;-80
2022/10/30 00:47:18;;;;;;;19.70;10.95;;;14.40;99.90;;;;;;5093178;28;20336;-80
2022/10/30 00:49:49;;;;;;;;;;;14.50;99.90;;;;;;5108406;28;20104;-81
2022/10/30 00:52:14;;;;;;;16.75;9.68;;;14.50;99.90;;;;;;5105158;28;19927;-80
2022/10/30 00:54:40;;;;;;;21.45;10.65;;;14.40;99.90;;;;;;5084736;28;20036;-81
2022/10/30 00:57:08;;;;;;;13.88;9.27;;;14.30;99.90;;;;;;5085375;28;20028;-80
2022/10/30 00:59:35;;;;;;;18.80;10.70;;;14.20;99.90;;;;;;5105132;28;20138;-80
2022/10/30 01:02:03;;;;;;;16.10;10.05;;;14.40;99.90;;;;;;5103669;28;20055;-78
2022/10/30 01:04:32;;;;;;;17.73;10.85;;;14.10;99.90;;;;;;5097261;28;20046;-80
2022/10/30 01:07:04;;;;;;;16.65;10.43;;;14.20;99.90;;;;;;5106194;28;20051;-80
2022/10/30 01:09:30;;;;;;;20.98;11.15;;;14.20;99.90;;;;;;5103361;28;20055;-80
2022/10/30 01:11:57;;;;;;;19.52;10.80;;;14.30;99.90;;;;;;5104515;28;20020;-78
2022/10/30 01:14:23;;;;;;;14.27;10.10;;;14.30;99.90;;;;;;5112287;28;20035;-78
2022/10/30 01:17:07;;;;;;;16.42;10.25;;;14.10;99.90;;;;;;5085528;28;20028;-79
2022/10/30 01:19:47;;;;;;;16.58;11.43;;;14.30;99.90;;;;;;5100760;28;20032;-79
2022/10/30 01:22:43;;;;;;;17.95;11.73;;;14.30;99.90;;;;;;5108398;28;20028;-80
2022/10/30 01:25:30;;;;;;;22.95;10.93;;;14.30;99.90;;;;;;5088945;28;20040;-79
2022/10/30 01:28:14;;;;;;;21.10;10.80;;;14.10;99.90;;;;;;5099203;28;20038;-79
2022/10/30 01:31:02;;;;;;;16.45;10.45;;;14.00;99.90;;;;;;5104282;28;20035;-79
2022/10/30 01:33:59;;;;;;;20.00;9.88;;;14.10;99.90;;;;;;5095764;28;20044;-79
2022/10/30 01:36:42;;;;;;;14.80;10.00;;;13.90;99.90;;;;;;5091470;28;20040;-78
2022/10/30 01:39:14;;;;;;;16.40;10.75;;;13.90;99.90;;;;;;5104913;28;20043;-79
2022/10/30 01:41:40;;;;;;;19.08;9.68;;;14.10;99.90;;;;;;5112306;28;20199;-79
2022/10/30 01:44:10;;;;;;;18.50;10.80;;;13.90;99.90;;;;;;5112887;27;20331;-79
2022/10/30 01:46:53;;;;;;;17.05;11.05;;;14.00;99.90;;;;;;5095073;28;20046;-79
2022/10/30 01:49:55;;;;;;;16.80;10.52;;;14.00;99.90;;;;;;5087046;28;20036;-80
2022/10/30 01:52:50;;;;;;;16.98;10.95;;;13.90;99.90;;;;;;5116163;28;20055;-81
2022/10/30 01:55:40;;;;;;;16.63;10.52;;;14.10;99.90;;;;;;5090681;28;20031;-80
2022/10/30 01:58:12;;;;;;;18.35;10.45;;;14.00;99.90;;;;;;5090371;28;20055;-81
2022/10/30 02:00:41;;;;;;;18.48;10.38;;;14.00;99.90;;;;;;5089395;28;20036;-80
2022/10/30 02:03:07;;;;;;;16.30;9.90;;;14.00;99.90;;;;;;5115776;28;20040;-79
2022/10/30 02:05:44;;;;;;;16.27;10.43;;;14.00;99.90;;;;;;5091099;28;20027;-79
2022/10/30 02:08:10;;;;;;;20.50;10.93;;;14.20;99.90;;;;;;5104160;28;20063;-78
2022/10/30 02:10:38;;;;;;;17.25;9.85;;;14.00;99.90;;;;;;5111973;28;20039;-79
2022/10/30 02:13:04;;;;;;;18.48;10.55;;;14.00;99.90;;;;;;5112734;28;20341;-79
2022/10/30 02:15:30;;;;;;;17.42;10.70;;;14.00;99.90;;;;;;5092472;28;20024;-82
2022/10/30 02:17:56;;;;;;;21.27;11.18;;;13.80;99.90;;;;;;5093718;28;20035;-80
2022/10/30 02:20:23;;;;;;;18.85;10.43;;;13.80;99.90;;;;;;5075885;28;20023;-79
2022/10/30 02:22:49;;;;;;;20.52;10.65;;;14.00;99.90;;;;;;5101140;28;20761;-79
2022/10/30 02:25:15;;;;;;;19.80;10.55;;;14.00;99.90;;;;;;5121747;28;20043;-81
2022/10/30 02:27:41;;;;;;;15.48;10.52;;;14.00;99.90;;;;;;5095143;28;20031;-79
2022/10/30 02:30:08;;;;;;;18.35;11.00;;;13.80;99.90;;;;;;5084715;28;20074;-80
2022/10/30 02:32:34;;;;;;;17.25;10.45;;;14.00;99.90;;;;;;5084882;28;20210;-80
2022/10/30 02:35:00;;;;;;;18.63;9.90;;;13.90;99.90;;;;;;5099064;28;20070;-80
2022/10/30 02:37:26;;;;;;;20.38;10.65;;;14.10;99.90;;;;;;5085344;28;20241;-81
2022/10/30 02:39:52;;;;;;;19.75;10.55;;;14.00;99.90;;;;;;5110543;28;20775;-81
2022/10/30 02:42:18;;;;;;;16.35;10.43;;;13.10;99.90;;;;;;5101286;28;20028;-81
2022/10/30 02:44:44;;;;;;;18.40;10.82;;;14.00;99.90;;;;;;5100228;28;20187;-82
2022/10/30 02:47:10;;;;;;;18.33;10.40;;;13.70;99.90;;;;;;5099317;28;20095;-79
2022/10/30 02:49:35;;;;;;;16.90;11.23;;;13.70;99.90;;;;;;5105338;28;20028;-81
2022/10/30 02:52:01;;;;;;;16.65;10.23;;;14.00;99.90;;;;;;5079042;28;20034;-79
2022/10/30 02:54:27;;;;;;;14.18;10.02;;;13.70;99.90;;;;;;5069297;28;20036;-78
2022/10/30 02:56:52;;;;;;;19.42;9.95;;;13.90;99.90;;;;;;5094937;28;20019;-80
2022/10/30 02:59:19;;;;;;;17.63;10.13;;;14.00;99.90;;;;;;5057791;28;20103;-80
2022/10/30 03:01:45;;;;;;;14.15;10.40;;;14.00;99.90;;;;;;5094665;28;20117;-81
2022/10/30 03:04:10;;;;;;;17.27;10.88;;;14.00;99.90;;;;;;5105515;28;20055;-80
2022/10/30 03:06:36;;;;;;;16.60;11.13;;;14.10;99.90;;;;;;5087468;28;20246;-80
2022/10/30 03:09:02;;;;;;;20.17;11.65;;;13.70;99.90;;;;;;5122087;28;20043;-80
2022/10/30 03:11:28;;;;;;;14.05;10.70;;;13.80;99.90;;;;;;5091845;28;20047;-79
2022/10/30 03:13:54;;;;;;;21.08;11.05;;;14.10;99.90;;;;;;5090011;28;20120;-80
2022/10/30 03:16:22;;;;;;;19.55;11.50;;;14.00;99.90;;;;;;5113663;27;20072;-80
2022/10/30 03:18:49;;;;;;;18.88;10.85;;;13.70;99.90;;;;;;5113465;27;20318;-81
2022/10/30 03:21:17;;;;;;;22.27;11.18;;;14.00;99.90;;;;;;5098405;28;20036;-79
2022/10/30 03:23:43;;;;;;;19.88;10.93;;;14.00;99.90;;;;;;5101681;28;20035;-79
2022/10/30 03:26:09;;;;;;;19.92;11.52;;;14.00;99.90;;;;;;5104021;28;20036;-79
2022/10/30 03:28:35;;;;;;;23.42;10.80;;;13.80;99.90;;;;;;5113461;28;20258;-79
2022/10/30 03:31:04;;;;;;;21.83;12.13;;;13.80;99.90;;;;;;5086821;28;20059;-79
2022/10/30 03:33:31;;;;;;;18.60;10.85;;;14.00;99.90;;;;;;5102685;28;20061;-78
2022/10/30 03:35:57;;;;;;;20.35;11.55;;;13.80;99.90;;;;;;5116294;28;20589;-80
2022/10/30 03:38:23;;;;;;;21.40;12.32;;;14.00;99.90;;;;;;5086683;27;20057;-79
2022/10/30 03:40:49;;;;;;;19.20;11.77;;;14.20;99.90;;;;;;5083538;28;20043;-79
2022/10/30 03:43:14;;;;;;;16.88;10.95;;;13.90;99.90;;;;;;5075906;28;20148;-80
2022/10/30 03:45:48;;;;;;;18.17;10.90;;;14.20;99.90;;;;;;5100401;28;20055;-79
2022/10/30 03:48:15;;;;;;;19.83;10.73;;;14.20;99.90;;;;;;5102323;28;20043;-78
2022/10/30 03:50:41;;;;;;;18.70;10.90;;;13.90;99.90;;;;;;5112741;28;20062;-80
2022/10/30 03:53:07;;;;;;;21.58;11.57;;;14.20;99.90;;;;;;5097647;28;20377;-78
2022/10/30 03:55:33;;;;;;;19.25;11.15;;;14.00;99.90;;;;;;5082507;28;20043;-79
2022/10/30 03:57:58;;;;;;;18.38;11.10;;;14.10;99.90;;;;;;5115266;27;20280;-82
2022/10/30 04:00:24;;;;;;;19.92;10.45;;;14.30;99.90;;;;;;5088454;28;20114;-79
2022/10/30 04:02:51;;;;;;;18.80;11.43;;;14.30;99.90;;;;;;5116457;28;20048;-80
2022/10/30 04:05:19;;;;;;;20.20;11.45;;;14.00;99.90;;;;;;5110446;28;20319;-78
2022/10/30 04:07:46;;;;;;;23.00;10.40;;;14.20;99.90;;;;;;5112634;28;20612;-80
2022/10/30 04:10:12;;;;;;;19.65;11.38;;;13.90;99.90;;;;;;5103782;28;20035;-78
2022/10/30 04:12:38;;;;;;;15.15;10.48;;;14.20;99.90;;;;;;5105994;28;20061;-80
2022/10/30 04:15:06;;;;;;;17.52;11.68;;;14.00;99.90;;;;;;5100521;28;20028;-80
2022/10/30 04:17:32;;;;;;;22.42;11.82;;;14.10;99.90;;;;;;5093841;28;20195;-81
2022/10/30 04:19:58;;;;;;;17.98;10.98;;;14.10;99.90;;;;;;5114125;28;20077;-80
2022/10/30 04:22:23;;;;;;;22.83;12.00;;;14.00;99.90;;;;;;5105261;28;20027;-79
2022/10/30 04:24:49;;;;;;;17.83;11.15;;;12.90;99.90;;;;;;5085825;28;20028;-80
2022/10/30 04:27:16;;;;;;;19.15;11.38;;;14.00;99.90;;;;;;5085418;28;20040;-81
2022/10/30 04:29:41;;;;;;;17.05;10.15;;;13.90;99.90;;;;;;5097861;28;20027;-81
2022/10/30 04:32:10;;;;;;;15.98;11.00;;;14.10;99.90;;;;;;5094183;28;20039;-77
2022/10/30 04:34:38;;;;;;;17.80;10.70;;;13.90;99.90;;;;;;5082554;28;20103;-80
2022/10/30 04:37:04;;;;;;;15.30;10.25;;;14.00;99.90;;;;;;5063582;28;20040;-80
2022/10/30 04:39:30;;;;;;;16.48;9.80;;;14.10;99.90;;;;;;5085713;28;20032;-79
2022/10/30 04:41:55;;;;;;;18.42;10.23;;;13.80;99.90;;;;;;5081848;28;20032;-79
2022/10/30 04:44:21;;;;;;;20.85;11.30;;;14.00;99.90;;;;;;5100182;28;20104;-80
2022/10/30 04:46:47;;;;;;;20.55;11.77;;;14.00;99.90;;;;;;5080179;28;20086;-79
2022/10/30 04:49:12;;;;;;;18.60;10.82;;;13.70;99.90;;;;;;5102458;28;20028;-81
2022/10/30 04:51:38;;;;;;;18.33;11.95;;;13.80;99.90;;;;;;5085753;28;20031;-80
2022/10/30 04:54:04;;;;;;;24.45;10.45;;;13.90;99.90;;;;;;5093904;28;20023;-81
2022/10/30 04:56:31;;;;;;;18.98;11.05;;;13.70;99.90;;;;;;5073391;28;20035;-79
2022/10/30 04:58:57;;;;;;;19.20;10.95;;;14.00;99.90;;;;;;5098956;28;20035;-80
2022/10/30 05:01:23;;;;;;;15.45;10.00;;;14.00;99.90;;;;;;5097523;28;20276;-81
2022/10/30 05:03:50;;;;;;;20.55;11.18;;;14.00;99.90;;;;;;5102727;28;20078;-80
2022/10/30 05:06:25;;;;;;;18.77;11.43;;;13.60;99.90;;;;;;5099788;28;20290;-79
2022/10/30 05:08:51;;;;;;;23.58;11.90;;;13.70;99.90;;;;;;5109625;28;20038;-80
2022/10/30 05:11:17;;;;;;;19.40;10.50;;;13.70;99.90;;;;;;5098782;28;20055;-79
2022/10/30 05:13:43;;;;;;;19.45;11.90;;;13.80;99.90;;;;;;5102426;28;20065;-81
2022/10/30 05:16:09;;;;;;;19.10;10.48;;;13.90;99.90;;;;;;5075650;28;20297;-78
2022/10/30 05:18:35;;;;;;;18.70;12.02;;;13.90;99.90;;;;;;5099113;28;20304;-80
2022/10/30 05:21:00;;;;;;;22.63;11.30;;;13.90;99.90;;;;;;5082371;28;20086;-79
2022/10/30 05:23:26;;;;;;;19.15;10.95;;;13.60;99.90;;;;;;5081983;28;20330;-81
2022/10/30 05:25:52;;;;;;;17.73;10.57;;;13.60;99.90;;;;;;5063818;28;20099;-81
2022/10/30 05:28:17;;;;;;;15.43;10.30;;;13.90;99.90;;;;;;5113213;28;20032;-78
2022/10/30 05:30:43;;;;;;;18.13;11.55;;;13.90;99.90;;;;;;5091745;28;20036;-79
2022/10/30 05:33:10;;;;;;;16.10;11.10;;;13.90;99.90;;;;;;5094813;28;20207;-79
2022/10/30 05:35:37;;;;;;;15.27;10.50;;;13.90;99.90;;;;;;5115547;28;20474;-80
2022/10/30 05:38:05;;;;;;;18.70;11.07;;;13.80;99.90;;;;;;5118359;28;20051;-79
2022/10/30 05:44:39;;;;;;;21.58;11.52;;;13.50;99.90;;;;;;5011753;28;20041;-77
2022/10/30 05:47:09;;;;;;;17.20;11.55;;;13.50;99.90;;;;;;5055584;28;20041;-76
2022/10/30 05:49:48;;;;;;;;;;;;;;;;;;;;;
2022/10/30 05:52:17;;;;;;;18.70;11.55;;;13.40;99.90;;;;;;5091554;28;20024;-77
2022/10/30 05:54:45;;;;;;;16.70;11.68;;;13.50;99.90;;;;;;5096861;28;20440;-80
2022/10/30 05:57:11;;;;;;;22.58;11.73;;;13.40;99.90;;;;;;5092117;28;20137;-77
2022/10/30 05:59:40;;;;;;;15.68;10.35;;;13.50;99.90;;;;;;5108753;28;20036;-76
2022/10/30 06:02:06;;;;;;;19.08;11.73;;;13.60;99.90;;;;;;5082640;28;20066;-78
2022/10/30 06:04:31;;;;;;;21.77;11.73;;;13.40;99.90;;;;;;5089375;28;20044;-78
2022/10/30 06:06:57;;;;;;;17.98;11.45;;;13.50;99.90;;;;;;5092162;28;20095;-77
2022/10/30 06:09:25;;;;;;;18.92;12.80;;;13.20;99.90;;;;;;5103162;28;20109;-78
2022/10/30 06:11:52;;;;;;;20.52;12.43;;;13.20;99.90;;;;;;5080113;28;20052;-78
2022/10/30 06:14:18;;;;;;;23.20;12.88;;;13.40;99.90;;;;;;5074183;28;20032;-80
2022/10/30 06:16:43;;;;;;;24.67;13.15;;;13.50;99.90;;;;;;5085260;28;20067;-78
2022/10/30 06:19:09;;;;;;;23.65;13.93;;;13.20;99.90;;;;;;5096199;28;20036;-77
2022/10/30 06:21:35;;;;;;;22.30;13.10;;;13.60;99.90;;;;;;5076131;28;20046;-80
2022/10/30 06:24:07;;;;;;;21.63;13.02;;;13.30;99.90;;;;;;5096773;28;20031;-78
2022/10/30 06:26:33;;;;;;;18.38;12.20;;;13.10;99.90;;;;;;5098804;28;20044;-79
2022/10/30 06:28:58;;;;;;;19.25;12.25;;;13.40;99.90;;;;;;5084461;28;20322;-78
2022/10/30 06:31:24;;;;;;;21.05;12.00;;;13.10;99.90;;;;;;5096223;28;20035;-79
2022/10/30 06:33:50;;;;;;;18.67;11.20;;;13.30;99.90;;;;;;5085671;27;20027;-79
2022/10/30 06:36:16;;;;;;;17.50;12.05;;;13.10;99.90;;;;;;5069924;28;20031;-78
2022/10/30 06:38:42;;;;;;;16.40;11.50;;;13.50;99.90;;;;;;5085920;28;20028;-77
2022/10/30 06:41:08;;;;;;;20.42;11.68;;;13.30;99.90;;;;;;5115922;28;20028;-77
2022/10/30 06:43:34;;;;;;;18.98;12.13;;;13.20;99.90;;;;;;5111572;28;20031;-78
2022/10/30 06:46:00;;;;;;;18.70;12.90;;;13.20;99.90;;;;;;5105799;28;20023;-77
2022/10/30 06:48:26;;;;;;;21.17;12.57;;;13.10;99.90;;;;;;5096214;28;20036;-77
2022/10/30 06:50:56;;;;;;;18.98;10.68;;;13.50;99.90;;;;;;5109205;28;20039;-77
2022/10/30 06:53:21;;;;;;;17.55;11.88;;;13.50;99.90;;;;;;5098757;28;20027;-76
2022/10/30 06:56:01;;;;;;;21.60;13.20;;;13.50;99.90;;;;;;5096565;28;20043;-77
2022/10/30 06:58:29;;;;;;;24.10;12.57;;;13.10;99.90;;;;;;5088278;28;20090;-78
2022/10/30 07:01:05;;;;;;;21.45;12.90;;;13.30;99.90;;;;;;5097644;28;20071;-78
2022/10/30 07:04:04;;;;;;;21.05;12.77;;;13.50;99.90;;;;;;5083581;28;20086;-78
2022/10/30 07:06:38;;;;;;;23.08;11.90;;;13.50;99.90;;;;;;5095132;28;20076;-77
2022/10/30 07:09:04;;;;;;;23.02;13.52;;;13.30;99.90;;;;;;5102760;28;20050;-76
2022/10/30 07:11:30;;;;;;;23.92;13.30;;;13.60;99.90;;;;;;5105042;28;20201;-77
2022/10/30 07:14:02;;;;;;;26.45;14.15;;;13.70;99.90;;;;;;5116117;28;20237;-78
2022/10/30 07:16:27;;;;;;;22.73;11.95;;;13.70;99.90;;;;;;5080454;28;20073;-77
2022/10/30 07:18:55;;;;;;;20.48;12.93;;;13.50;99.90;;;;;;5086126;28;20028;-77
2022/10/30 07:21:20;;;;;;;17.23;12.20;;;13.60;99.90;;;;;;5104739;28;20207;-77
2022/10/30 07:23:46;;;;;;;18.42;11.60;;;13.70;99.90;;;;;;5110407;28;20036;-77
2022/10/30 07:26:12;;;;;;;18.17;11.80;;;13.40;99.90;;;;;;5087020;28;20035;-76
2022/10/30 07:28:37;;;;;;;22.60;12.30;;;13.90;99.90;;;;;;5109888;28;20043;-77
2022/10/30 07:31:03;;;;;;;22.08;12.27;;;13.50;99.90;;;;;;5092337;28;20036;-78
2022/10/30 07:33:29;;;;;;;16.33;11.35;;;13.80;99.90;;;;;;5117988;28;20028;-78
2022/10/30 07:36:21;;;;;;;22.17;12.15;;;13.90;99.90;;;;;;5103632;28;20086;-77
2022/10/30 07:38:55;;;;;;;15.95;11.52;;;13.50;99.90;;;;;;5087879;28;20206;-78
2022/10/30 07:41:21;;;;;;;20.20;12.10;;;13.70;99.90;;;;;;5104055;28;20034;-77
2022/10/30 07:43:56;;;;;;;19.17;11.73;;;14.10;99.90;;;;;;5102648;28;20038;-79
2022/10/30 07:46:21;;;;;;;;;;;13.90;99.90;;;;;;5085775;28;20039;-77
2022/10/30 07:48:47;;;;;;;20.20;12.80;;;14.50;99.90;;;;;;5081947;28;19912;-78
2022/10/30 07:51:14;;;;;;;22.42;11.32;;;14.50;99.90;;;;;;5118557;28;20039;-77
2022/10/30 07:53:58;;;;;;;17.98;10.77;;;14.50;99.90;;;;;;5121545;28;20039;-79
2022/10/30 07:56:23;;;;;;;20.00;10.27;;;14.30;99.90;;;;;;5082857;28;20179;-76
2022/10/30 07:58:49;;;;;;;15.30;10.65;;;14.50;99.90;;;;;;5104176;28;20076;-78
2022/10/30 08:01:15;;;;;;;13.45;9.98;;;14.80;99.90;;;;;;5098650;28;20098;-79
2022/10/30 08:03:40;;;;;;;16.80;10.63;;;15.00;99.90;;;;;;5083849;28;20104;-77
2022/10/30 08:06:06;;;;;;;15.32;9.85;;;15.20;99.90;;;;;;5078459;28;20113;-77
2022/10/30 08:08:32;;;;;;;13.60;9.57;;;15.30;99.90;;;;;;5109511;28;20034;-76
2022/10/30 08:10:58;;;;;;;17.55;10.07;;;15.60;99.90;;;;;;5085720;28;20039;-77
2022/10/30 08:13:26;;;;;;;20.00;9.85;;;15.70;99.90;;;;;;5097633;28;20038;-80
2022/10/30 08:15:52;;;;;;;17.35;9.55;;;15.70;99.90;;;;;;5081176;28;20327;-74
2022/10/30 08:18:18;;;;;;;17.65;10.30;;;15.80;99.90;;;;;;5069008;28;20028;-75
2022/10/30 08:20:49;;;;;;;19.00;10.38;;;15.70;99.90;;;;;;5076970;27;20081;-74
2022/10/30 08:23:16;;;;;;;15.23;9.25;;;15.50;99.90;;;;;;5112638;28;20028;-79
2022/10/30 08:25:59;;;;;;;18.63;9.50;;;15.70;99.90;;;;;;5099200;28;20031;-75
2022/10/30 08:28:24;;;;;;;18.77;10.60;;;15.90;99.90;;;;;;5106280;28;20227;-74
2022/10/30 08:30:50;;;;;;;16.25;10.35;;;15.70;99.90;;;;;;5099510;28;20036;-74
2022/10/30 08:33:29;;;;;;;19.02;10.38;;;15.80;99.90;;;;;;5083658;28;20032;-75
2022/10/30 08:35:58;;;;;;;15.88;9.30;;;16.10;99.90;;;;;;5078758;28;20040;-75
2022/10/30 08:38:24;;;;;;;18.85;9.98;;;15.90;99.90;;;;;;5112587;28;20035;-74
2022/10/30 08:40:51;;;;;;;13.68;9.20;;;16.00;99.90;;;;;;5088454;28;20134;-75
2022/10/30 08:43:17;;;;;;;14.40;10.02;;;16.20;99.90;;;;;;5084198;28;20040;-74
2022/10/30 08:46:23;;;;;;;13.82;9.05;;;16.40;99.90;;;;;;5100788;28;20031;-76
2022/10/30 08:48:49;;;;;;;22.50;9.05;;;16.80;99.90;;;;;;5104126;28;20044;-74
2022/10/30 08:51:15;;;;;;;13.68;9.18;;;16.50;99.90;;;;;;5106366;28;20266;-74
2022/10/30 08:53:40;;;;;;;18.73;9.13;;;16.50;99.90;;;;;;5117648;28;20027;-74
2022/10/30 08:56:06;;;;;;;13.98;8.80;;;16.60;99.90;;;;;;5117114;28;20024;-73
2022/10/30 08:58:35;;;;;;;14.55;8.48;;;16.60;99.90;;;;;;5066297;28;20067;-74
2022/10/30 09:01:03;;;;;;;15.73;9.25;;;16.60;99.90;;;;;;5099197;28;20027;-74
2022/10/30 09:03:29;;;;;;;12.88;8.85;;;16.50;99.90;;;;;;5120227;28;20060;-77
2022/10/30 09:06:00;;;;;;;15.23;9.38;;;16.80;99.90;;;;;;5100708;28;20263;-75
2022/10/30 09:08:26;;;;;;;13.00;8.95;;;16.80;99.90;;;;;;5087359;28;20040;-76
2022/10/30 09:10:56;;;;;;;15.02;9.00;;;17.00;99.90;;;;;;5101596;28;20308;-75
2022/10/30 09:13:22;;;;;;;11.30;8.55;;;17.20;99.90;;;;;;5099923;28;20062;-73
2022/10/30 09:15:48;;;;;;;16.33;8.82;;;17.20;99.90;;;;;;5070759;28;20028;-73
2022/10/30 09:18:34;;;;;;;11.73;8.68;;;17.30;99.90;;;;;;5100056;28;20222;-75
2022/10/30 09:20:59;;;;;;;23.70;10.32;;;17.20;99.90;;;;;;5110607;28;20165;-75
2022/10/30 09:23:25;;;;;;;16.52;9.10;;;17.40;99.90;;;;;;5100507;28;20199;-77
2022/10/30 09:25:51;;;;;;;15.00;9.57;;;17.40;99.90;;;;;;5088255;28;20207;-74
2022/10/30 09:28:16;;;;;;;15.23;9.00;;;17.50;99.90;;;;;;5107134;28;20032;-74
2022/10/30 09:30:42;;;;;;;13.68;8.82;;;17.70;99.90;;;;;;5092871;28;20126;-74
2022/10/30 09:33:08;;;;;;;14.48;8.82;;;17.80;99.90;;;;;;5102219;28;20023;-73
2022/10/30 09:35:39;;;;;;;16.88;8.15;;;18.10;99.90;;;;;;5096140;28;20064;-74
2022/10/30 09:38:05;;;;;;;13.73;8.68;;;18.30;99.90;;;;;;5079244;28;20256;-74
2022/10/30 09:40:56;;;;;;;15.48;7.53;;;18.40;99.90;;;;;;5106477;28;20042;-78
2022/10/30 09:44:07;;;;;;;15.50;7.43;;;18.40;99.90;;;;;;5095874;28;20043;-78
2022/10/30 09:47:07;;;;;;;12.20;7.75;;;18.90;99.90;;;;;;5089460;28;20075;-77
2022/10/30 09:49:43;;;;;;;9.68;7.63;;;19.30;99.90;;;;;;5081374;28;20302;-76
2022/10/30 09:52:32;;;;;;;13.13;7.43;;;19.80;99.90;;;;;;5105902;28;20429;-76
2022/10/30 09:55:14;;;;;;;15.20;8.13;;;19.80;99.90;;;;;;5099779;28;20028;-81
2022/10/30 09:58:17;;;;;;;12.30;7.57;;;20.40;99.90;;;;;;5110944;28;20427;-79
2022/10/30 10:01:00;;;;;;;19.90;7.95;;;20.00;99.90;;;;;;5107929;28;20040;-75
2022/10/30 10:03:57;;;;;;;12.10;6.60;;;20.00;99.90;;;;;;5094056;28;20385;-80
2022/10/30 10:06:24;;;;;;;11.60;6.75;;;19.60;99.90;;;;;;5109877;28;20039;-78
2022/10/30 10:09:05;;;;;;;13.23;7.10;;;19.50;99.90;;;;;;5105016;28;20477;-76
2022/10/30 10:11:41;;;;;;;14.77;7.13;;;19.20;99.90;;;;;;5107800;28;20035;-78
2022/10/30 10:14:31;;;;;;;14.63;7.13;;;19.10;99.90;;;;;;5109399;28;20042;-79
2022/10/30 10:16:59;;;;;;;12.48;7.15;;;18.90;99.90;;;;;;5105070;28;20330;-77
2022/10/30 10:19:52;;;;;;;9.23;6.85;;;19.10;99.90;;;;;;5084274;28;20038;-77
2022/10/30 10:22:24;;;;;;;12.38;7.22;;;18.90;99.90;;;;;;5104678;28;20031;-77
2022/10/30 10:24:59;;;;;;;8.80;6.78;;;18.90;99.90;;;;;;5105320;28;20553;-78
2022/10/30 10:28:02;;;;;;;15.13;7.45;;;18.90;99.90;;;;;;5101980;28;20036;-77
2022/10/30 10:31:05;;;;;;;13.30;7.78;;;18.90;99.90;;;;;;5119270;28;20103;-76
2022/10/30 10:33:51;;;;;;;10.65;7.32;;;18.80;99.90;;;;;;5112359;28;20028;-75
2022/10/30 10:36:46;;;;;;;15.38;7.85;;;18.80;99.90;;;;;;5099975;28;20036;-74
2022/10/30 10:39:33;;;;;;;12.02;7.68;;;19.00;99.90;;;;;;5084350;28;20040;-74
2022/10/30 10:42:31;;;;;;;13.30;7.43;;;18.90;99.90;;;;;;5100008;28;20403;-77
2022/10/30 10:45:24;;;;;;;15.20;7.65;;;18.80;99.90;;;;;;5072273;28;20203;-75
2022/10/30 10:48:18;;;;;;;13.55;7.55;;;18.80;99.90;;;;;;5101044;28;20191;-78
2022/10/30 10:51:14;;;;;;;15.43;7.05;;;18.90;99.90;;;;;;5083793;28;20071;-78
2022/10/30 10:53:43;;;;;;;15.02;7.03;;;19.00;99.90;;;;;;5101088;28;20035;-75
2022/10/30 10:56:09;;;;;;;11.85;6.35;;;19.10;99.90;;;;;;5104528;28;20035;-78
2022/10/30 10:58:44;;;;;;;9.90;6.45;;;19.10;99.90;;;;;;5121239;28;20023;-77
2022/10/30 11:01:20;;;;;;;12.52;7.55;;;19.10;99.90;;;;;;5129953;27;20071;-80
2022/10/30 11:04:01;;;;;;;14.55;8.00;;;18.90;99.90;;;;;;5083557;28;20040;-74
2022/10/30 11:06:39;;;;;;;16.48;8.55;;;18.90;99.90;;;;;;5089622;28;20075;-78
2022/10/30 11:09:20;;;;;;;14.93;8.55;;;18.90;99.90;;;;;;5100839;28;20223;-80
2022/10/30 11:11:48;;;;;;;14.68;8.35;;;18.80;99.90;;;;;;5099829;28;20089;-77
2022/10/30 11:14:22;;;;;;;18.33;7.97;;;18.90;99.90;;;;;;5100624;28;20039;-76
2022/10/30 11:17:23;;;;;;;;;;;19.10;99.90;;;;;;5100958;28;20024;-78
2022/10/30 11:19:53;;;;;;;18.02;7.63;;;19.20;99.90;;;;;;5061750;28;19928;-77
2022/10/30 11:22:32;;;;;;;14.20;8.30;;;19.30;99.90;;;;;;5092983;28;20048;-78
2022/10/30 11:25:20;;;;;;;15.60;8.32;;;19.40;99.90;;;;;;5083381;28;20103;-75
2022/10/30 11:27:48;;;;;;;12.57;7.50;;;19.40;99.90;;;;;;5083175;28;20038;-78
2022/10/30 11:30:20;;;;;;;13.38;7.28;;;19.40;99.90;;;;;;5119248;28;20040;-77
2022/10/30 11:32:46;;;;;;;10.23;7.40;;;19.50;99.90;;;;;;5100020;28;20028;-74
2022/10/30 11:35:17;;;;;;;15.02;7.22;;;19.50;99.90;;;;;;5120975;28;20020;-77
2022/10/30 11:37:45;;;;;;;12.52;6.85;;;19.40;99.90;;;;;;5090253;28;20362;-77
2022/10/30 11:40:13;;;;;;;12.70;6.88;;;19.40;99.90;;;;;;5100477;28;20044;-77
2022/10/30 11:42:59;;;;;;;11.30;7.05;;;19.30;99.90;;;;;;5117948;27;20043;-79
2022/10/30 11:45:40;;;;;;;12.65;6.53;;;19.20;99.90;;;;;;5100133;28;20039;-77
2022/10/30 11:48:24;;;;;;;10.60;6.68;;;19.30;99.90;;;;;;5093428;28;20234;-76
2022/10/30 11:51:01;;;;;;;14.98;8.25;;;19.20;99.90;;;;;;5099478;28;20110;-77
2022/10/30 11:53:33;;;;;;;15.30;6.90;;;19.30;99.90;;;;;;5100401;28;20035;-77
2022/10/30 11:56:01;;;;;;;11.05;6.90;;;19.30;99.90;;;;;;5099485;28;20102;-75
2022/10/30 11:58:35;;;;;;;10.30;6.97;;;19.30;99.90;;;;;;5099317;28;20050;-77
2022/10/30 12:01:05;;;;;;;12.50;7.03;;;19.20;99.90;;;;;;5099215;28;20111;-75
2022/10/30 12:03:37;;;;;;;13.02;6.38;;;19.20;99.90;;;;;;5092237;28;20079;-74
2022/10/30 12:06:15;;;;;;;11.38;6.13;;;19.10;99.90;;;;;;5099531;28;20055;-76
2022/10/30 12:09:01;;;;;;;12.00;5.95;;;19.20;99.90;;;;;;5112732;28;20105;-75
2022/10/30 12:11:34;;;;;;;14.23;6.53;;;19.20;99.90;;;;;;5099770;28;20075;-75
2022/10/30 12:14:01;;;;;;;10.32;6.18;;;19.20;99.90;;;;;;5098177;28;20032;-77
2022/10/30 12:16:27;;;;;;;14.00;6.80;;;19.30;99.90;;;;;;5099573;28;20039;-77
2022/10/30 12:19:02;;;;;;;11.82;6.20;;;19.30;99.90;;;;;;5108814;28;20069;-74
2022/10/30 12:21:36;;;;;;;10.68;6.40;;;19.20;99.90;;;;;;5117955;28;20036;-75
2022/10/30 12:24:06;;;;;;;14.98;6.25;;;19.40;99.90;;;;;;5113210;28;20071;-75
2022/10/30 12:26:34;;;;;;;10.40;5.55;;;19.30;99.90;;;;;;5084602;28;20036;-76
2022/10/30 12:29:05;;;;;;;12.88;6.28;;;19.50;99.90;;;;;;5114655;28;20050;-77
2022/10/30 12:31:56;;;;;;;13.68;6.18;;;19.50;99.90;;;;;;5109485;28;20028;-76
2022/10/30 12:34:56;;;;;;;11.15;5.78;;;19.50;99.90;;;;;;5065241;28;20043;-79
2022/10/30 12:37:39;;;;;;;11.77;6.22;;;19.30;99.90;;;;;;5098600;28;20070;-77
2022/10/30 12:40:11;;;;;;;13.63;6.05;;;19.30;99.90;;;;;;5099153;28;20079;-75
2022/10/30 12:42:44;;;;;;;9.98;5.60;;;19.30;99.90;;;;;;5099529;28;20094;-74
2022/10/30 12:45:20;;;;;;;10.98;6.15;;;19.40;99.90;;;;;;5103046;28;20031;-83
2022/10/30 12:48:31;;;;;;;10.68;5.97;;;19.40;99.90;;;;;;5094146;28;20354;-81
2022/10/30 12:51:15;;;;;;;11.93;6.75;;;19.40;99.90;;;;;;5099863;28;20044;-79
2022/10/30 12:53:53;;;;;;;11.30;5.60;;;19.20;99.90;;;;;;5097347;28;20035;-79
2022/10/30 12:56:25;;;;;;;9.23;5.82;;;19.30;99.90;;;;;;5119419;28;20063;-76
2022/10/30 12:59:08;;;;;;;13.02;6.18;;;19.30;99.90;;;;;;5101753;28;20046;-79